createdAt,value
2023-04-04T00:01:44.164Z,65.09
2023-04-04T00:04:11.229Z,64.84
2023-04-04T00:06:37.879Z,64.89
2023-04-04T00:09:04.770Z,64.21
2023-04-04T00:11:32.765Z,63.79
2023-04-04T00:13:59.467Z,64.33
2023-04-04T00:16:26.200Z,63.28
2023-04-04T00:18:53.373Z,63.30
2023-04-04T00:21:20.107Z,62.90
2023-04-04T00:23:47.900Z,61.09
2023-04-04T00:26:14.662Z,60.66
2023-04-04T00:28:42.761Z,60.13
2023-04-04T00:31:10.521Z,58.83
2023-04-04T00:33:38.264Z,58.67
2023-04-04T00:36:05.378Z,58.78
2023-04-04T00:38:32.040Z,58.86
2023-04-04T00:41:00.641Z,59.07
2023-04-04T00:43:27.578Z,58.66
2023-04-04T00:45:56.452Z,57.25
2023-04-04T00:48:23.721Z,56.51
2023-04-04T00:50:50.499Z,56.32
2023-04-04T00:53:18.238Z,56.15
2023-04-04T00:55:45.075Z,56.12
2023-04-04T00:58:11.856Z,56.33
2023-04-04T01:00:39.000Z,56.27
2023-04-04T01:03:07.208Z,55.69
2023-04-04T01:05:33.954Z,55.90
2023-04-04T01:08:01.690Z,55.39
2023-04-04T01:10:30.174Z,55.66
2023-04-04T01:12:57.101Z,54.93
2023-04-04T01:15:23.798Z,54.25
2023-04-04T01:17:52.978Z,54.26
2023-04-04T01:20:26.219Z,53.87
2023-04-04T01:22:55.434Z,54.04
2023-04-04T01:25:39.421Z,54.08
2023-04-04T01:28:06.139Z,53.97
2023-04-04T01:30:36.547Z,54.04
2023-04-04T01:33:10.620Z,53.55
2023-04-04T01:35:43.921Z,53.87
2023-04-04T01:38:18.511Z,53.88
2023-04-04T01:40:49.895Z,53.77
2023-04-04T01:43:17.030Z,53.49
2023-04-04T01:45:43.880Z,53.42
2023-04-04T01:48:10.538Z,53.94
2023-04-04T01:50:37.616Z,54.93
2023-04-04T01:53:04.487Z,55.01
2023-04-04T01:55:31.149Z,55.18
2023-04-04T01:57:59.131Z,55.27
2023-04-04T02:00:25.929Z,55.06
2023-04-04T02:02:52.753Z,54.95
2023-04-04T02:05:19.498Z,55.19
2023-04-04T02:07:48.058Z,55.51
2023-04-04T02:10:14.897Z,55.51
2023-04-04T02:12:41.572Z,55.76
2023-04-04T02:15:10.298Z,55.53
2023-04-04T02:17:37.045Z,55.36
2023-04-04T02:20:04.109Z,55.03
2023-04-04T02:22:30.933Z,54.92
2023-04-04T02:24:57.669Z,55.35
2023-04-04T02:27:24.353Z,55.86
2023-04-04T02:29:50.994Z,55.77
2023-04-04T02:32:19.067Z,56.43
2023-04-04T02:34:45.753Z,56.42
2023-04-04T02:37:12.445Z,56.49
2023-04-04T02:39:39.272Z,56.44
2023-04-04T02:42:06.026Z,56.25
2023-04-04T02:44:32.682Z,56.25
2023-04-04T02:46:59.389Z,56.51
2023-04-04T02:49:27.502Z,56.47
2023-04-04T02:51:54.103Z,56.60
2023-04-04T02:54:20.753Z,56.56
2023-04-04T02:56:47.398Z,56.54
2023-04-04T02:59:14.150Z,56.10
2023-04-04T03:01:40.801Z,56.85
2023-04-04T03:04:07.549Z,56.98
2023-04-04T03:06:35.606Z,56.99
2023-04-04T03:09:02.327Z,56.80
2023-04-04T03:11:28.970Z,56.90
2023-04-04T03:13:55.695Z,57.09
2023-04-04T03:16:22.572Z,56.51
2023-04-04T03:18:49.606Z,56.46
2023-04-04T03:21:16.217Z,56.51
2023-04-04T03:23:44.233Z,56.16
2023-04-04T03:26:11.252Z,56.36
2023-04-04T03:28:38.318Z,56.68
2023-04-04T03:31:05.754Z,56.61
2023-04-04T03:33:32.544Z,56.94
2023-04-04T03:35:59.317Z,57.42
2023-04-04T03:38:25.926Z,58.06
2023-04-04T03:41:02.466Z,58.29
2023-04-04T03:43:30.307Z,58.17
2023-04-04T03:46:00.257Z,57.88
2023-04-04T03:48:26.922Z,58.18
2023-04-04T03:50:53.544Z,58.46
2023-04-04T03:53:20.330Z,58.67
2023-04-04T03:55:47.016Z,58.35
2023-04-04T03:58:21.193Z,58.74
2023-04-04T04:00:47.911Z,58.44
2023-04-04T04:03:17.079Z,58.12
2023-04-04T04:05:44.173Z,58.64
2023-04-04T04:08:10.868Z,58.65
2023-04-04T04:10:37.507Z,57.95
2023-04-04T04:13:04.119Z,57.72
2023-04-04T04:15:32.140Z,58.29
2023-04-04T04:17:59.804Z,58.42
2023-04-04T04:20:26.609Z,58.76
2023-04-04T04:22:54.107Z,58.63
2023-04-04T04:25:21.168Z,58.53
2023-04-04T04:27:47.789Z,58.75
2023-04-04T04:30:16.818Z,59.14
2023-04-04T04:32:44.896Z,59.41
2023-04-04T04:35:11.570Z,59.05
2023-04-04T04:37:38.311Z,59.41
2023-04-04T04:40:06.043Z,58.88
2023-04-04T04:42:32.870Z,59.18
2023-04-04T04:44:59.521Z,58.84
2023-04-04T04:47:26.250Z,58.87
2023-04-04T04:49:54.335Z,59.18
2023-04-04T04:52:20.997Z,59.16
2023-04-04T04:54:47.683Z,58.85
2023-04-04T04:57:14.388Z,58.80
2023-04-04T04:59:41.068Z,58.67
2023-04-04T05:02:07.837Z,59.12
2023-04-04T05:04:34.621Z,59.20
2023-04-04T05:07:02.726Z,59.26
2023-04-04T05:09:29.391Z,59.34
2023-04-04T05:14:40.292Z,60.11
2023-04-04T05:17:07.977Z,59.97
2023-04-04T05:19:34.682Z,59.80
2023-04-04T05:22:02.801Z,60.02
2023-04-04T05:24:29.752Z,59.26
2023-04-04T05:26:57.445Z,59.75
2023-04-04T05:29:24.249Z,59.46
2023-04-04T05:31:50.903Z,59.52
2023-04-04T05:34:17.637Z,59.79
2023-04-04T05:36:44.452Z,59.53
2023-04-04T05:39:12.605Z,59.45
2023-04-04T05:41:39.232Z,59.06
2023-04-04T05:44:05.871Z,59.00
2023-04-04T05:46:32.722Z,59.61
2023-04-04T05:48:59.513Z,58.97
2023-04-04T05:51:26.191Z,58.94
2023-04-04T05:53:52.883Z,59.18
2023-04-04T05:56:20.906Z,58.45
2023-04-04T05:58:47.617Z,57.94
2023-04-04T06:01:14.317Z,57.53
2023-04-04T06:03:41.150Z,57.06
2023-04-04T06:06:08.020Z,56.94
2023-04-04T06:08:50.211Z,57.00
2023-04-04T06:11:21.545Z,56.49
2023-04-04T06:13:48.200Z,56.00
2023-04-04T06:16:16.153Z,55.32
2023-04-04T06:18:42.879Z,54.76
2023-04-04T06:21:10.639Z,54.37
2023-04-04T06:23:37.321Z,53.51
2023-04-04T06:26:04.427Z,53.73
2023-04-04T06:28:32.495Z,53.59
2023-04-04T06:30:59.223Z,53.26
2023-04-04T06:33:26.026Z,52.76
2023-04-04T06:35:52.737Z,52.39
2023-04-04T06:38:19.451Z,51.54
2023-04-04T06:40:46.154Z,50.67
2023-04-04T06:43:12.863Z,49.07
2023-04-04T06:45:40.908Z,47.79
2023-04-04T06:48:08.125Z,46.52
2023-04-04T06:50:34.890Z,45.24
2023-04-04T06:53:03.012Z,43.39
2023-04-04T06:55:29.823Z,42.34
2023-04-04T06:57:56.560Z,41.81
2023-04-04T07:00:23.448Z,40.85
2023-04-04T07:02:57.263Z,39.62
2023-04-04T07:05:24.010Z,39.21
2023-04-04T07:07:51.934Z,38.70
2023-04-04T07:10:18.586Z,38.49
2023-04-04T07:12:45.289Z,38.77
2023-04-04T07:15:11.955Z,37.78
2023-04-04T07:17:38.800Z,37.56
2023-04-04T07:20:08.130Z,36.68
2023-04-04T07:22:37.428Z,36.59
2023-04-04T07:25:04.488Z,36.09
2023-04-04T07:27:31.205Z,35.41
2023-04-04T07:29:57.942Z,35.49
2023-04-04T07:32:24.835Z,36.18
2023-04-04T07:34:51.534Z,36.38
2023-04-04T07:37:19.653Z,36.31
2023-04-04T07:39:46.322Z,37.20
2023-04-04T07:42:12.931Z,37.36
2023-04-04T07:44:39.612Z,36.08
2023-04-04T07:47:09.850Z,36.69
2023-04-04T07:49:37.223Z,36.75
2023-04-04T07:52:04.102Z,36.66
2023-04-04T07:54:32.170Z,36.57
2023-04-04T07:56:58.886Z,36.73
2023-04-04T07:59:25.718Z,37.02
2023-04-04T08:01:52.725Z,36.67
2023-04-04T08:04:19.610Z,35.79
2023-04-04T08:06:46.348Z,35.68
2023-04-04T08:09:13.368Z,35.55
2023-04-04T08:11:41.404Z,35.69
2023-04-04T08:14:08.088Z,34.73
2023-04-04T08:16:34.787Z,34.94
2023-04-04T08:19:01.556Z,35.33
2023-04-04T08:21:28.229Z,34.21
2023-04-04T08:23:54.931Z,34.12
2023-04-04T08:26:21.604Z,34.63
2023-04-04T08:28:49.859Z,35.24
2023-04-04T08:31:16.940Z,35.13
2023-04-04T08:33:47.600Z,35.27
2023-04-04T08:36:14.818Z,35.03
2023-04-04T08:38:41.530Z,35.01
2023-04-04T08:41:09.880Z,35.00
2023-04-04T08:43:38.477Z,34.53
2023-04-04T08:46:11.413Z,34.04
2023-04-04T08:48:39.513Z,33.72
2023-04-04T08:51:08.546Z,33.52
2023-04-04T08:53:36.436Z,33.47
2023-04-04T08:56:03.534Z,33.03
2023-04-04T08:58:30.279Z,32.98
2023-04-04T09:00:57.115Z,33.29
2023-04-04T09:03:26.621Z,33.41
2023-04-04T09:08:20.507Z,32.07
2023-04-04T09:10:48.026Z,32.06
2023-04-04T09:13:16.637Z,32.20
2023-04-04T09:15:47.157Z,32.92
2023-04-04T09:18:13.867Z,31.66
2023-04-04T09:20:43.987Z,31.80
2023-04-04T09:23:12.101Z,31.66
2023-04-04T09:25:52.755Z,30.89
2023-04-04T09:28:28.123Z,31.59
2023-04-04T09:30:54.915Z,31.25
2023-04-04T09:33:23.714Z,31.81
2023-04-04T09:35:55.431Z,31.85
2023-04-04T09:38:24.058Z,31.96
2023-04-04T09:40:50.997Z,31.20
2023-04-04T09:43:17.800Z,30.31
2023-04-04T09:45:45.857Z,30.24
2023-04-04T09:48:12.683Z,29.26
2023-04-04T09:50:46.780Z,30.34
2023-04-04T09:53:17.934Z,30.80
2023-04-04T09:55:50.587Z,30.12
2023-04-04T09:58:18.850Z,29.48
2023-04-04T10:00:47.892Z,29.42
2023-04-04T10:03:16.156Z,28.70
2023-04-04T10:05:45.152Z,30.92
2023-04-04T10:08:17.557Z,30.69
2023-04-04T10:11:06.531Z,29.58
2023-04-04T10:13:37.550Z,30.58
2023-04-04T10:16:04.835Z,30.65
2023-04-04T10:18:33.376Z,31.09
2023-04-04T10:21:14.130Z,30.26
2023-04-04T10:23:46.078Z,30.03
2023-04-04T10:26:13.539Z,30.57
2023-04-04T10:28:40.977Z,30.50
2023-04-04T10:31:19.789Z,29.83
2023-04-04T10:33:52.645Z,29.71
2023-04-04T10:36:23.104Z,30.37
2023-04-04T10:39:02.261Z,28.11
2023-04-04T10:41:31.776Z,27.97
2023-04-04T10:44:06.796Z,28.10
2023-04-04T10:46:35.887Z,28.93
2023-04-04T10:49:03.720Z,28.77
2023-04-04T10:51:32.600Z,29.49
2023-04-04T10:54:02.827Z,30.07
2023-04-04T10:56:29.967Z,31.09
2023-04-04T10:59:09.611Z,29.36
2023-04-04T11:01:49.617Z,29.69
2023-04-04T11:04:20.347Z,30.22
2023-04-04T11:07:10.128Z,29.63
2023-04-04T11:09:54.940Z,28.42
2023-04-04T11:12:26.553Z,28.07
2023-04-04T11:15:07.919Z,28.24
2023-04-04T11:17:42.101Z,29.51
2023-04-04T11:20:09.246Z,28.77
2023-04-04T11:22:35.919Z,29.46
2023-04-04T11:25:31.346Z,29.26
2023-04-04T11:27:58.623Z,29.35
2023-04-04T11:30:26.193Z,27.95
2023-04-04T11:33:04.013Z,29.24
2023-04-04T11:35:33.572Z,29.59
2023-04-04T11:38:00.973Z,29.01
2023-04-04T11:40:40.503Z,28.98
2023-04-04T11:43:08.232Z,28.76
2023-04-04T11:45:35.521Z,27.96
2023-04-04T11:48:04.087Z,25.24
2023-04-04T11:50:35.224Z,25.70
2023-04-04T11:53:05.635Z,26.52
2023-04-04T11:55:32.361Z,25.75
2023-04-04T11:58:11.334Z,24.06
2023-04-04T12:00:39.652Z,24.77
2023-04-04T12:03:08.666Z,23.62
2023-04-04T12:05:35.561Z,23.84
2023-04-04T12:08:03.378Z,24.80
2023-04-04T12:10:31.440Z,23.24
2023-04-04T12:12:58.478Z,24.10
2023-04-04T12:15:28.275Z,23.93
2023-04-04T12:17:54.980Z,23.11
2023-04-04T12:20:22.599Z,23.99
2023-04-04T12:22:49.370Z,23.77
2023-04-04T12:25:16.065Z,25.70
2023-04-04T12:27:43.170Z,24.95
2023-04-04T12:30:12.048Z,23.66
2023-04-04T12:32:40.168Z,24.18
2023-04-04T12:35:07.321Z,24.49
2023-04-04T12:37:34.013Z,23.33
2023-04-04T12:40:02.253Z,23.63
2023-04-04T12:42:31.523Z,22.96
2023-04-04T12:44:58.176Z,23.31
2023-04-04T12:47:24.950Z,23.56
2023-04-04T12:49:54.270Z,24.38
2023-04-04T12:52:22.947Z,24.50
2023-04-04T12:55:06.859Z,24.41
2023-04-04T12:57:35.498Z,24.19
2023-04-04T13:00:03.983Z,24.26
2023-04-04T13:02:30.773Z,23.39
2023-04-04T13:04:59.516Z,23.25
2023-04-04T13:07:27.802Z,24.08
2023-04-04T13:09:56.235Z,23.10
2023-04-04T13:12:22.916Z,23.26
2023-04-04T13:14:59.833Z,22.57
2023-04-04T13:17:38.563Z,24.13
2023-04-04T13:20:07.849Z,23.92
2023-04-04T13:22:35.379Z,23.15
2023-04-04T13:25:02.287Z,22.29
2023-04-04T13:27:29.265Z,23.65
2023-04-04T13:29:55.906Z,23.87
2023-04-04T13:32:22.742Z,22.20
2023-04-04T13:34:49.415Z,23.97
2023-04-04T13:37:17.560Z,23.54
2023-04-04T13:39:44.372Z,23.26
2023-04-04T13:42:11.048Z,22.50
2023-04-04T13:44:37.813Z,23.55
2023-04-04T13:47:04.563Z,22.73
2023-04-04T13:49:31.286Z,23.73
2023-04-04T13:51:57.966Z,22.92
2023-04-04T13:54:26.119Z,23.53
2023-04-04T13:56:54.659Z,22.32
2023-04-04T13:59:22.484Z,23.33
2023-04-04T14:01:49.224Z,23.26
2023-04-04T14:04:23.316Z,22.79
2023-04-04T14:06:50.947Z,24.40
2023-04-04T14:09:17.616Z,20.83
2023-04-04T14:11:45.732Z,20.98
2023-04-04T14:14:12.467Z,20.54
2023-04-04T14:16:39.185Z,22.41
2023-04-04T14:19:05.906Z,21.39
2023-04-04T14:21:32.690Z,20.99
2023-04-04T14:23:59.337Z,21.65
2023-04-04T14:26:25.978Z,22.54
2023-04-04T14:28:54.017Z,22.21
2023-04-04T14:31:20.698Z,21.13
2023-04-04T14:33:47.426Z,21.50
2023-04-04T14:36:15.499Z,21.32
2023-04-04T14:38:42.137Z,21.23
2023-04-04T14:41:08.818Z,21.72
2023-04-04T14:43:35.498Z,21.50
2023-04-04T14:46:03.724Z,21.33
2023-04-04T14:48:30.394Z,21.71
2023-04-04T14:50:57.235Z,21.05
2023-04-04T14:53:24.107Z,21.43
2023-04-04T14:55:50.715Z,22.10
2023-04-04T14:58:17.389Z,22.17
2023-04-04T15:00:44.274Z,22.57
2023-04-04T15:03:12.724Z,20.65
2023-04-04T15:05:39.664Z,20.32
2023-04-04T15:08:06.662Z,20.43
2023-04-04T15:10:33.732Z,19.73
2023-04-04T15:13:00.508Z,20.47
2023-04-04T15:15:27.213Z,20.50
2023-04-04T15:17:53.863Z,19.85
2023-04-04T15:20:22.117Z,21.35
2023-04-04T15:22:48.801Z,20.48
2023-04-04T15:25:15.480Z,19.27
2023-04-04T15:27:42.152Z,19.71
2023-04-04T15:30:09.675Z,19.00
2023-04-04T15:32:36.336Z,19.46
2023-04-04T15:35:03.142Z,19.25
2023-04-04T15:37:31.197Z,19.05
2023-04-04T15:39:57.895Z,20.40
2023-04-04T15:42:25.205Z,21.15
2023-04-04T15:44:51.855Z,20.98
2023-04-04T15:47:18.512Z,20.49
2023-04-04T15:49:45.197Z,21.20
2023-04-04T15:52:11.885Z,21.40
2023-04-04T15:54:39.900Z,21.08
2023-04-04T15:57:06.555Z,23.20
2023-04-04T15:59:33.286Z,22.45
2023-04-04T16:02:00.041Z,22.54
2023-04-04T16:04:26.756Z,23.29
2023-04-04T16:06:53.414Z,22.92
2023-04-04T16:09:20.124Z,22.53
2023-04-04T16:11:48.397Z,23.57
2023-04-04T16:14:15.050Z,23.59
2023-04-04T16:16:41.880Z,23.84
2023-04-04T16:19:08.635Z,23.47
2023-04-04T16:21:35.400Z,23.39
2023-04-04T16:24:02.122Z,24.04
2023-04-04T16:26:28.844Z,25.07
2023-04-04T16:28:56.868Z,24.00
2023-04-04T16:31:23.644Z,23.93
2023-04-04T16:33:50.291Z,23.67
2023-04-04T16:36:16.954Z,23.49
2023-04-04T16:38:43.617Z,24.19
2023-04-04T16:41:10.374Z,23.78
2023-04-04T16:43:37.080Z,24.34
2023-04-04T16:46:05.742Z,25.34
2023-04-04T16:48:32.430Z,25.12
2023-04-04T16:50:59.167Z,24.91
2023-04-04T16:53:25.852Z,24.55
2023-04-04T16:55:52.626Z,24.79
2023-04-04T16:58:19.409Z,24.23
2023-04-04T17:00:46.135Z,25.37
2023-04-04T17:03:14.292Z,25.53
2023-04-04T17:05:40.974Z,25.54
2023-04-04T17:08:07.708Z,25.88
2023-04-04T17:10:34.788Z,26.19
2023-04-04T17:13:01.418Z,26.08
2023-04-04T17:15:28.045Z,25.93
2023-04-04T17:17:54.703Z,26.52
2023-04-04T17:20:22.871Z,26.49
2023-04-04T17:22:49.667Z,26.83
2023-04-04T17:25:16.347Z,26.82
2023-04-04T17:27:43.061Z,27.37
2023-04-04T17:30:11.348Z,27.94
2023-04-04T17:32:38.165Z,28.70
2023-04-04T17:35:05.945Z,28.72
2023-04-04T17:37:34.015Z,29.09
2023-04-04T17:40:00.901Z,29.16
2023-04-04T17:42:27.578Z,29.31
2023-04-04T17:44:54.229Z,30.05
2023-04-04T17:47:20.941Z,30.09
2023-04-04T17:49:47.522Z,30.41
2023-04-04T17:52:14.130Z,30.52
2023-04-04T17:54:42.250Z,30.88
2023-04-04T17:57:08.917Z,31.08
2023-04-04T17:59:35.665Z,31.14
2023-04-04T18:02:02.624Z,31.25
2023-04-04T18:04:29.391Z,31.84
2023-04-04T18:06:56.237Z,31.47
2023-04-04T18:09:23.465Z,31.85
2023-04-04T18:11:51.563Z,32.35
2023-04-04T18:14:18.484Z,32.69
2023-04-04T18:16:45.401Z,32.59
2023-04-04T18:19:12.132Z,32.75
2023-04-04T18:21:38.934Z,33.15
2023-04-04T18:24:06.214Z,33.20
2023-04-04T18:26:32.896Z,33.10
2023-04-04T18:29:02.664Z,32.99
2023-04-04T18:31:29.382Z,32.97
2023-04-04T18:33:57.237Z,33.42
2023-04-04T18:36:23.981Z,33.17
2023-04-04T18:38:50.719Z,33.38
2023-04-04T18:41:17.472Z,33.91
2023-04-04T18:43:44.250Z,34.09
2023-04-04T18:46:12.483Z,34.06
2023-04-04T18:48:39.103Z,34.51
2023-04-04T18:51:05.791Z,34.32
2023-04-04T18:53:32.409Z,34.12
2023-04-04T18:55:59.284Z,34.16
2023-04-04T18:58:26.296Z,34.40
2023-04-04T19:00:53.255Z,34.73
2023-04-04T19:03:21.981Z,34.88
2023-04-04T19:05:49.511Z,35.17
2023-04-04T19:08:16.625Z,35.24
2023-04-04T19:10:45.226Z,35.28
2023-04-04T19:13:11.931Z,35.33
2023-04-04T19:15:38.822Z,35.01
2023-04-04T19:18:05.755Z,35.03
2023-04-04T19:20:33.852Z,35.32
2023-04-04T19:23:00.579Z,35.38
2023-04-04T19:25:27.340Z,35.55
2023-04-04T19:27:54.013Z,35.70
2023-04-04T19:30:40.790Z,35.82
2023-04-04T19:33:09.194Z,35.62
2023-04-04T19:36:07.628Z,35.48
2023-04-04T19:38:35.895Z,35.64
2023-04-04T19:41:07.430Z,35.31
2023-04-04T19:43:34.110Z,35.24
2023-04-04T19:46:07.526Z,35.26
2023-04-04T19:48:45.108Z,34.90
2023-04-04T19:51:36.877Z,34.99
2023-04-04T19:54:06.532Z,35.00
2023-04-04T19:56:35.671Z,34.92
2023-04-04T19:59:04.507Z,35.01
2023-04-04T20:01:33.416Z,34.88
2023-04-04T20:04:06.233Z,34.92
2023-04-04T20:06:35.602Z,35.16
2023-04-04T20:09:07.356Z,35.13
2023-04-04T20:11:36.279Z,35.39
2023-04-04T20:14:06.331Z,35.59
2023-04-04T20:16:33.675Z,35.51
2023-04-04T20:19:01.762Z,35.69
2023-04-04T20:21:29.854Z,35.75
2023-04-04T20:23:59.463Z,35.36
2023-04-04T20:26:49.612Z,35.42
2023-04-04T20:29:17.586Z,35.54
2023-04-04T20:31:46.335Z,35.32
2023-04-04T20:34:36.759Z,35.75
2023-04-04T20:37:07.155Z,35.39
2023-04-04T20:39:37.933Z,35.27
2023-04-04T20:42:27.135Z,35.08
2023-04-04T20:44:54.505Z,35.17
2023-04-04T20:47:41.982Z,34.98
2023-04-04T20:50:38.926Z,35.34
2023-04-04T20:53:06.891Z,35.31
2023-04-04T20:55:35.531Z,34.96
2023-04-04T20:58:07.747Z,35.31
2023-04-04T21:00:42.025Z,35.22
2023-04-04T21:03:10.677Z,34.88
2023-04-04T21:05:39.461Z,35.12
2023-04-04T21:08:35.921Z,35.04
2023-04-04T21:11:05.156Z,35.21
2023-04-04T21:13:34.924Z,35.28
2023-04-04T21:16:03.619Z,34.86
2023-04-04T21:18:31.756Z,35.01
2023-04-04T21:21:15.417Z,35.24
2023-04-04T21:23:47.765Z,35.44
2023-04-04T21:26:29.607Z,35.23
2023-04-04T21:28:57.884Z,35.75
2023-04-04T21:31:27.505Z,35.67
2023-04-04T21:33:55.678Z,35.76
2023-04-04T21:36:28.722Z,35.88
2023-04-04T21:38:56.637Z,36.15
2023-04-04T21:41:26.576Z,36.20
2023-04-04T21:43:54.528Z,36.20
2023-04-04T21:46:23.371Z,36.09
2023-04-04T21:48:50.362Z,36.57
2023-04-04T21:51:17.288Z,36.65
2023-04-04T21:53:44.018Z,36.99
2023-04-04T21:56:10.617Z,37.11
2023-04-04T21:58:38.598Z,37.22
2023-04-04T22:01:05.409Z,37.11
2023-04-04T22:03:32.182Z,37.41
2023-04-04T22:05:58.783Z,37.58
2023-04-04T22:08:25.568Z,37.91
2023-04-04T22:10:52.292Z,38.36
2023-04-04T22:13:20.208Z,38.62
2023-04-04T22:15:49.084Z,38.76
2023-04-04T22:18:16.544Z,39.02
2023-04-04T22:20:44.349Z,39.04
2023-04-04T22:23:12.599Z,39.03
2023-04-04T22:25:39.318Z,39.15
2023-04-04T22:28:06.802Z,39.30
2023-04-04T22:30:33.499Z,39.75
2023-04-04T22:33:01.965Z,39.87
2023-04-04T22:35:28.887Z,39.83
2023-04-04T22:37:55.890Z,39.94
2023-04-04T22:40:22.591Z,40.06
2023-04-04T22:42:49.258Z,39.96
2023-04-04T22:45:16.064Z,40.08
2023-04-04T22:47:42.792Z,40.04
2023-04-04T22:50:11.146Z,39.98
2023-04-04T22:52:37.764Z,39.92
2023-04-04T22:55:05.001Z,40.14
2023-04-04T22:57:31.849Z,40.26
2023-04-04T22:59:58.574Z,40.30
2023-04-04T23:02:25.448Z,40.32
2023-04-04T23:04:52.163Z,40.58
2023-04-04T23:07:20.224Z,40.77
2023-04-04T23:09:46.879Z,41.01
2023-04-04T23:12:13.582Z,41.07
2023-04-04T23:14:40.211Z,41.49
2023-04-04T23:17:06.928Z,41.99
2023-04-04T23:19:33.665Z,41.91
2023-04-04T23:22:00.253Z,42.11
2023-04-04T23:24:28.347Z,42.08
2023-04-04T23:26:55.029Z,42.51
2023-04-04T23:29:21.665Z,42.36
2023-04-04T23:31:48.363Z,42.67
2023-04-04T23:34:15.040Z,42.92
2023-04-04T23:36:41.794Z,43.01
2023-04-04T23:39:08.532Z,43.48
2023-04-04T23:41:36.762Z,43.67
2023-04-04T23:44:03.688Z,43.78
2023-04-04T23:46:30.668Z,43.99
2023-04-04T23:48:59.139Z,44.06
2023-04-04T23:51:25.943Z,44.20
2023-04-04T23:53:52.724Z,44.50
2023-04-04T23:56:19.459Z,44.47
2023-04-04T23:58:47.573Z,44.37
